createdAt,value
2022-11-09T00:00:18.255Z,13.46
2022-11-09T00:02:45.635Z,13.06
2022-11-09T00:05:12.735Z,14.19
2022-11-09T00:07:39.840Z,13.56
2022-11-09T00:10:07.515Z,14.16
2022-11-09T00:12:34.647Z,13.65
2022-11-09T00:15:01.754Z,13.29
2022-11-09T00:17:29.121Z,14.44
2022-11-09T00:19:56.242Z,12.87
2022-11-09T00:22:23.337Z,13.11
2022-11-09T00:24:50.723Z,14.32
2022-11-09T00:27:18.005Z,13.45
2022-11-09T00:29:45.138Z,13.29
2022-11-09T00:32:12.564Z,13.45
2022-11-09T00:34:39.689Z,13.94
2022-11-09T00:37:06.813Z,13.48
2022-11-09T00:39:34.199Z,13.61
2022-11-09T00:42:01.323Z,13.38
2022-11-09T00:44:30.170Z,13.01
2022-11-09T00:46:57.588Z,14.10
2022-11-09T00:49:24.720Z,14.12
2022-11-09T00:51:52.363Z,13.65
2022-11-09T00:54:19.923Z,13.66
2022-11-09T00:56:47.127Z,14.04
2022-11-09T00:59:14.356Z,14.20
2022-11-09T01:01:41.857Z,14.66
2022-11-09T01:04:09.020Z,13.71
2022-11-09T01:06:36.200Z,13.29
2022-11-09T01:09:03.619Z,14.56
2022-11-09T01:11:30.739Z,13.84
2022-11-09T01:13:58.703Z,13.53
2022-11-09T01:16:26.191Z,12.98
2022-11-09T01:18:54.619Z,13.29
2022-11-09T01:21:24.656Z,14.32
2022-11-09T01:23:52.051Z,14.09
2022-11-09T01:26:19.304Z,14.63
2022-11-09T01:28:46.879Z,15.23
2022-11-09T01:31:15.331Z,13.82
2022-11-09T01:33:42.751Z,14.06
2022-11-09T01:36:14.618Z,14.19
2022-11-09T01:38:42.161Z,14.26
2022-11-09T01:41:11.238Z,13.93
2022-11-09T01:43:38.369Z,13.79
2022-11-09T01:46:21.308Z,13.24
2022-11-09T01:48:50.164Z,13.12
2022-11-09T01:51:38.874Z,13.41
2022-11-09T01:54:11.798Z,12.74
2022-11-09T01:56:39.177Z,12.40
2022-11-09T01:59:08.021Z,12.95
2022-11-09T02:01:35.203Z,12.72
2022-11-09T02:04:06.738Z,12.46
2022-11-09T02:06:33.913Z,12.75
2022-11-09T02:09:06.175Z,13.03
2022-11-09T02:11:33.570Z,13.30
2022-11-09T02:14:01.066Z,12.72
2022-11-09T02:16:28.470Z,12.98
2022-11-09T02:18:56.583Z,13.27
2022-11-09T02:21:24.854Z,12.94
2022-11-09T02:23:52.413Z,12.46
2022-11-09T02:26:22.067Z,13.47
2022-11-09T02:28:49.215Z,12.81
2022-11-09T02:31:16.609Z,12.45
2022-11-09T02:34:04.084Z,11.96
2022-11-09T02:36:32.062Z,11.84
2022-11-09T02:39:00.814Z,12.07
2022-11-09T02:41:28.106Z,11.91
2022-11-09T02:43:56.563Z,12.29
2022-11-09T02:46:42.117Z,12.00
2022-11-09T02:49:09.518Z,12.00
2022-11-09T02:51:36.881Z,11.41
2022-11-09T02:54:04.282Z,11.24
2022-11-09T02:56:31.694Z,11.47
2022-11-09T02:58:59.827Z,12.38
2022-11-09T03:01:27.058Z,12.60
2022-11-09T03:03:54.762Z,12.15
2022-11-09T03:06:34.244Z,11.94
2022-11-09T03:09:03.033Z,11.98
2022-11-09T03:11:30.155Z,11.75
2022-11-09T03:13:58.751Z,13.04
2022-11-09T03:16:26.332Z,12.71
2022-11-09T03:18:53.517Z,12.51
2022-11-09T03:21:22.252Z,12.79
2022-11-09T03:23:51.669Z,13.04
2022-11-09T03:26:18.815Z,12.90
2022-11-09T03:28:45.986Z,12.20
2022-11-09T03:31:13.730Z,13.23
2022-11-09T03:33:40.933Z,12.57
2022-11-09T03:36:09.187Z,12.65
2022-11-09T03:38:36.608Z,12.64
2022-11-09T03:41:03.963Z,12.35
2022-11-09T03:43:31.990Z,11.68
2022-11-09T03:45:59.394Z,12.24
2022-11-09T03:48:26.537Z,11.91
2022-11-09T03:50:53.653Z,11.55
2022-11-09T03:53:21.318Z,11.62
2022-11-09T03:55:48.671Z,11.66
2022-11-09T03:58:15.838Z,11.82
2022-11-09T04:00:43.237Z,12.37
2022-11-09T04:03:10.637Z,12.39
2022-11-09T04:05:37.773Z,11.84
2022-11-09T04:08:05.095Z,11.93
2022-11-09T04:10:32.512Z,12.00
2022-11-09T04:12:59.697Z,12.09
2022-11-09T04:15:26.815Z,12.04
2022-11-09T04:17:58.004Z,11.93
2022-11-09T04:20:25.810Z,11.47
2022-11-09T04:22:59.859Z,11.58
2022-11-09T04:25:27.411Z,11.54
2022-11-09T04:27:55.374Z,12.27
2022-11-09T04:30:22.984Z,11.76
2022-11-09T04:32:50.519Z,12.17
2022-11-09T04:35:17.678Z,12.20
2022-11-09T04:37:44.794Z,12.68
2022-11-09T04:40:12.432Z,12.70
2022-11-09T04:42:39.549Z,11.73
2022-11-09T04:45:07.093Z,11.83
2022-11-09T04:47:34.479Z,11.92
2022-11-09T04:50:01.626Z,11.72
2022-11-09T04:52:28.774Z,12.27
2022-11-09T04:54:56.151Z,12.04
2022-11-09T04:57:23.299Z,12.00
2022-11-09T04:59:50.424Z,11.97
2022-11-09T05:02:17.805Z,12.19
2022-11-09T05:04:44.925Z,11.40
2022-11-09T05:07:12.151Z,11.62
2022-11-09T05:09:39.597Z,11.55
2022-11-09T05:12:06.862Z,12.11
2022-11-09T05:14:33.991Z,12.04
2022-11-09T05:17:01.415Z,12.39
2022-11-09T05:19:28.545Z,11.79
2022-11-09T05:21:55.659Z,11.45
2022-11-09T05:24:23.072Z,11.16
2022-11-09T05:26:50.214Z,11.97
2022-11-09T05:29:17.336Z,11.89
2022-11-09T05:31:50.880Z,11.63
2022-11-09T05:34:19.582Z,12.14
2022-11-09T05:36:46.962Z,12.28
2022-11-09T05:39:14.063Z,12.40
2022-11-09T05:41:41.374Z,11.81
2022-11-09T05:44:08.770Z,11.71
2022-11-09T05:46:35.924Z,12.20
2022-11-09T05:49:03.303Z,11.81
2022-11-09T05:51:30.874Z,11.38
2022-11-09T05:53:58.224Z,11.73
2022-11-09T05:56:33.475Z,11.40
2022-11-09T05:59:00.908Z,11.87
2022-11-09T06:01:28.107Z,11.79
2022-11-09T06:03:55.502Z,11.78
2022-11-09T06:06:22.629Z,11.72
2022-11-09T06:08:50.777Z,11.29
2022-11-09T06:11:23.611Z,11.63
2022-11-09T06:13:52.506Z,12.16
2022-11-09T06:16:20.068Z,12.49
2022-11-09T06:18:47.182Z,11.68
2022-11-09T06:21:14.446Z,13.03
2022-11-09T06:23:41.866Z,12.47
2022-11-09T06:26:10.086Z,11.75
2022-11-09T06:28:37.639Z,11.97
2022-11-09T06:31:05.861Z,11.86
2022-11-09T06:33:34.229Z,12.03
2022-11-09T06:36:01.686Z,11.84
2022-11-09T06:38:29.169Z,11.95
2022-11-09T06:40:57.213Z,11.84
2022-11-09T06:43:24.383Z,12.29
2022-11-09T06:45:52.266Z,11.70
2022-11-09T06:48:19.425Z,12.11
2022-11-09T06:50:46.525Z,12.09
2022-11-09T06:53:14.566Z,11.71
2022-11-09T06:55:45.850Z,11.26
2022-11-09T06:58:16.636Z,11.16
2022-11-09T07:00:44.189Z,10.80
2022-11-09T07:03:15.097Z,10.59
2022-11-09T07:05:42.766Z,10.71
2022-11-09T07:08:09.906Z,11.43
2022-11-09T07:10:37.306Z,11.56
2022-11-09T07:13:05.247Z,12.02
2022-11-09T07:15:32.594Z,12.40
2022-11-09T07:18:00.272Z,12.04
2022-11-09T07:20:27.859Z,11.40
2022-11-09T07:22:55.008Z,11.30
2022-11-09T07:25:22.292Z,11.39
2022-11-09T07:27:49.687Z,11.39
2022-11-09T07:30:16.899Z,11.38
2022-11-09T07:33:08.201Z,11.29
2022-11-09T07:35:31.571Z,10.81
2022-11-09T07:38:02.159Z,10.56
2022-11-09T07:40:29.929Z,10.67
2022-11-09T07:43:01.159Z,10.34
2022-11-09T07:45:32.089Z,10.31
2022-11-09T07:48:00.333Z,10.33
2022-11-09T07:50:27.669Z,10.99
2022-11-09T07:52:55.616Z,11.67
2022-11-09T07:55:23.248Z,11.56
2022-11-09T07:57:54.716Z,11.66
2022-11-09T08:00:23.819Z,11.78
2022-11-09T08:02:51.469Z,10.74
2022-11-09T08:05:18.605Z,11.23
2022-11-09T08:07:45.812Z,11.91
2022-11-09T08:10:13.632Z,12.05
2022-11-09T08:12:40.739Z,11.77
2022-11-09T08:15:08.091Z,12.25
2022-11-09T08:17:35.480Z,11.88
2022-11-09T08:20:02.645Z,11.32
2022-11-09T08:22:29.946Z,11.99
2022-11-09T08:24:57.331Z,11.31
2022-11-09T08:27:24.451Z,11.58
2022-11-09T08:29:51.579Z,11.31
2022-11-09T08:32:18.982Z,12.30
2022-11-09T08:34:46.826Z,11.03
2022-11-09T08:37:14.569Z,11.11
2022-11-09T08:39:42.024Z,11.30
2022-11-09T08:42:09.176Z,12.05
2022-11-09T08:44:36.322Z,11.65
2022-11-09T08:47:03.748Z,11.86
2022-11-09T08:49:30.928Z,11.62
2022-11-09T08:51:58.058Z,12.67
2022-11-09T08:54:25.487Z,12.29
2022-11-09T08:56:55.006Z,11.76
2022-11-09T08:59:22.344Z,11.67
2022-11-09T09:01:49.900Z,11.48
2022-11-09T09:04:17.096Z,11.68
2022-11-09T09:06:44.317Z,11.41
2022-11-09T09:09:11.831Z,12.14
2022-11-09T09:11:38.975Z,12.08
2022-11-09T09:14:06.132Z,12.02
2022-11-09T09:16:33.570Z,13.01
2022-11-09T09:19:00.711Z,13.25
2022-11-09T09:21:27.853Z,12.17
2022-11-09T09:23:55.360Z,12.04
2022-11-09T09:26:22.513Z,12.11
2022-11-09T09:28:50.957Z,12.17
2022-11-09T09:31:19.065Z,11.89
2022-11-09T09:33:47.490Z,12.15
2022-11-09T09:36:16.441Z,11.38
2022-11-09T09:38:43.912Z,12.31
2022-11-09T09:41:25.393Z,12.74
2022-11-09T09:43:54.568Z,12.28
2022-11-09T09:46:23.582Z,12.04
2022-11-09T09:48:56.031Z,12.14
2022-11-09T09:51:25.395Z,12.95
2022-11-09T09:54:22.062Z,12.17
2022-11-09T09:56:49.835Z,12.31
2022-11-09T09:59:33.196Z,12.09
2022-11-09T10:02:00.615Z,11.92
2022-11-09T10:04:38.065Z,12.90
2022-11-09T10:07:23.980Z,13.33
2022-11-09T10:09:54.504Z,11.63
2022-11-09T10:12:31.651Z,12.02
2022-11-09T10:15:07.163Z,12.07
2022-11-09T10:17:41.581Z,12.72
2022-11-09T10:20:21.292Z,12.52
2022-11-09T10:22:51.498Z,12.19
2022-11-09T10:25:37.712Z,12.52
2022-11-09T10:28:13.074Z,13.10
2022-11-09T10:30:40.788Z,12.79
2022-11-09T10:33:10.890Z,12.27
2022-11-09T10:35:38.671Z,12.39
2022-11-09T10:38:07.644Z,13.27
2022-11-09T10:41:10.322Z,12.56
2022-11-09T10:43:56.291Z,12.46
2022-11-09T10:47:00.773Z,13.04
2022-11-09T10:49:46.447Z,14.24
2022-11-09T10:52:33.256Z,12.81
2022-11-09T10:55:23.479Z,13.11
2022-11-09T10:58:18.288Z,13.59
2022-11-09T11:01:04.159Z,13.78
2022-11-09T11:03:51.665Z,13.13
2022-11-09T11:06:37.153Z,12.91
2022-11-09T11:09:23.442Z,13.19
2022-11-09T11:12:15.978Z,13.02
2022-11-09T11:15:01.966Z,13.79
2022-11-09T11:17:47.674Z,13.08
2022-11-09T11:20:34.576Z,13.18
2022-11-09T11:23:24.627Z,13.23
2022-11-09T11:26:10.262Z,13.09
2022-11-09T11:28:58.081Z,13.45
2022-11-09T11:31:43.622Z,13.34
2022-11-09T11:34:58.002Z,13.32
2022-11-09T11:37:44.070Z,12.65
2022-11-09T11:40:33.855Z,13.46
2022-11-09T11:43:34.506Z,13.22
2022-11-09T11:46:41.558Z,13.21
2022-11-09T11:49:43.325Z,13.92
2022-11-09T11:52:28.781Z,13.75
2022-11-09T11:55:21.359Z,14.04
2022-11-09T11:58:15.352Z,14.14
2022-11-09T12:01:18.336Z,13.45
2022-11-09T12:04:19.083Z,13.94
2022-11-09T12:07:04.541Z,13.56
2022-11-09T12:10:09.374Z,13.59
2022-11-09T12:12:59.956Z,13.48
2022-11-09T12:16:00.763Z,13.64
2022-11-09T12:18:58.677Z,14.26
2022-11-09T12:21:51.582Z,14.30
2022-11-09T12:24:40.185Z,13.33
2022-11-09T12:27:33.987Z,13.13
2022-11-09T12:30:21.476Z,13.92
2022-11-09T12:33:13.649Z,14.60
2022-11-09T12:36:01.376Z,14.35
2022-11-09T12:38:51.256Z,14.28
2022-11-09T12:41:37.319Z,14.06
2022-11-09T12:44:25.134Z,13.74
2022-11-09T12:47:15.425Z,13.62
2022-11-09T12:50:01.304Z,13.73
2022-11-09T12:52:47.492Z,13.09
2022-11-09T12:55:45.822Z,13.20
2022-11-09T12:58:32.328Z,12.84
2022-11-09T13:01:27.079Z,13.08
2022-11-09T13:04:16.331Z,13.87
2022-11-09T13:07:07.860Z,13.98
2022-11-09T13:09:54.607Z,13.64
2022-11-09T13:12:42.686Z,13.39
2022-11-09T13:15:28.938Z,12.98
2022-11-09T13:18:46.134Z,13.63
2022-11-09T13:21:32.667Z,14.72
2022-11-09T13:24:30.610Z,15.30
2022-11-09T13:27:34.531Z,15.31
2022-11-09T13:30:26.041Z,14.88
2022-11-09T13:33:17.564Z,14.48
2022-11-09T13:36:06.642Z,13.33
2022-11-09T13:39:11.115Z,13.54
2022-11-09T13:41:56.714Z,13.86
2022-11-09T13:44:44.526Z,14.47
2022-11-09T13:47:33.144Z,14.40
2022-11-09T13:50:22.927Z,14.56
2022-11-09T13:53:26.825Z,14.12
2022-11-09T13:56:15.456Z,13.38
2022-11-09T13:59:21.122Z,14.03
2022-11-09T14:02:12.395Z,14.18
2022-11-09T14:04:57.870Z,15.09
2022-11-09T14:07:43.372Z,14.59
2022-11-09T14:10:35.104Z,15.16
2022-11-09T14:13:39.165Z,14.89
2022-11-09T14:16:37.781Z,14.73
2022-11-09T14:19:23.711Z,14.55
2022-11-09T14:22:17.152Z,14.59
2022-11-09T14:25:12.590Z,13.52
2022-11-09T14:27:58.486Z,13.65
2022-11-09T14:30:44.517Z,13.59
2022-11-09T14:33:34.070Z,13.54
2022-11-09T14:36:19.921Z,13.55
2022-11-09T14:39:05.910Z,14.35
2022-11-09T14:41:52.037Z,13.73
2022-11-09T14:44:40.389Z,13.56
2022-11-09T14:47:30.148Z,14.10
2022-11-09T14:50:17.803Z,13.90
2022-11-09T14:53:03.555Z,14.55
2022-11-09T14:55:49.567Z,14.18
2022-11-09T14:58:35.244Z,13.91
2022-11-09T15:01:24.096Z,13.56
2022-11-09T15:04:23.699Z,13.72
2022-11-09T15:07:19.584Z,13.25
2022-11-09T15:10:11.526Z,14.33
2022-11-09T15:12:57.878Z,14.78
2022-11-09T15:15:43.540Z,14.57
2022-11-09T15:18:33.791Z,13.78
2022-11-09T15:21:21.480Z,14.22
2022-11-09T15:24:10.018Z,13.16
2022-11-09T15:26:56.548Z,13.52
2022-11-09T15:29:42.951Z,13.55
2022-11-09T15:32:32.440Z,13.21
2022-11-09T15:35:18.452Z,13.65
2022-11-09T15:38:03.926Z,14.27
2022-11-09T15:40:49.486Z,14.12
2022-11-09T15:43:34.974Z,13.63
2022-11-09T15:46:21.433Z,14.20
2022-11-09T15:49:15.587Z,14.54
2022-11-09T15:52:01.651Z,14.43
2022-11-09T15:54:47.438Z,14.32
2022-11-09T15:57:33.122Z,13.78
2022-11-09T16:00:21.204Z,14.40
2022-11-09T16:03:07.365Z,13.75
2022-11-09T16:05:53.657Z,13.39
2022-11-09T16:08:39.349Z,14.50
2022-11-09T16:11:25.218Z,14.49
2022-11-09T16:14:10.994Z,14.16
2022-11-09T16:16:57.068Z,13.00
2022-11-09T16:19:43.308Z,13.76
2022-11-09T16:22:29.611Z,13.76
2022-11-09T16:25:15.507Z,13.66
2022-11-09T16:28:01.100Z,13.72
2022-11-09T16:30:47.171Z,14.16
2022-11-09T16:33:33.552Z,13.84
2022-11-09T16:36:22.100Z,13.01
2022-11-09T16:39:09.692Z,14.03
2022-11-09T16:41:55.273Z,13.81
2022-11-09T16:44:41.601Z,14.17
2022-11-09T16:47:27.054Z,14.14
2022-11-09T16:50:12.580Z,14.80
2022-11-09T16:52:58.263Z,13.89
2022-11-09T16:55:44.008Z,14.40
2022-11-09T16:58:30.019Z,15.03
2022-11-09T17:01:19.252Z,15.04
2022-11-09T17:04:08.912Z,15.03
2022-11-09T17:06:54.862Z,14.06
2022-11-09T17:09:41.043Z,14.13
2022-11-09T17:12:26.522Z,13.76
2022-11-09T17:15:12.259Z,14.34
2022-11-09T17:17:58.060Z,14.26
2022-11-09T17:20:45.110Z,14.63
2022-11-09T17:23:31.583Z,14.97
2022-11-09T17:26:17.956Z,14.95
2022-11-09T17:29:04.283Z,14.97
2022-11-09T17:31:53.139Z,14.84
2022-11-09T17:34:38.981Z,15.75
2022-11-09T17:37:26.444Z,15.64
2022-11-09T17:40:12.504Z,16.14
2022-11-09T17:42:59.984Z,15.76
2022-11-09T17:45:46.161Z,15.90
2022-11-09T17:48:32.970Z,15.61
2022-11-09T17:51:19.087Z,15.39
2022-11-09T17:54:04.906Z,16.13
2022-11-09T17:56:51.711Z,16.17
2022-11-09T17:59:38.087Z,16.04
2022-11-09T18:02:24.290Z,16.42
2022-11-09T18:05:11.734Z,16.43
2022-11-09T18:07:58.123Z,16.63
2022-11-09T18:10:44.601Z,15.91
2022-11-09T18:13:30.324Z,15.59
2022-11-09T18:16:23.181Z,16.04
2022-11-09T18:19:09.493Z,15.81
2022-11-09T18:21:55.175Z,14.80
2022-11-09T18:24:41.639Z,15.22
2022-11-09T18:27:30.781Z,15.95
2022-11-09T18:30:22.920Z,15.47
2022-11-09T18:33:15.827Z,16.33
2022-11-09T18:36:03.160Z,16.80
2022-11-09T18:38:51.905Z,17.00
2022-11-09T18:41:37.881Z,17.01
2022-11-09T18:44:27.662Z,16.79
2022-11-09T18:47:15.982Z,16.34
2022-11-09T18:50:02.657Z,16.26
2022-11-09T18:52:48.866Z,15.90
2022-11-09T18:55:34.591Z,16.11
2022-11-09T18:58:21.178Z,16.57
2022-11-09T19:01:08.090Z,16.62
2022-11-09T19:03:58.996Z,16.85
2022-11-09T19:06:48.449Z,16.77
2022-11-09T19:09:39.132Z,16.26
2022-11-09T19:12:25.720Z,17.09
2022-11-09T19:15:12.592Z,16.88
2022-11-09T19:17:58.686Z,17.36
2022-11-09T19:20:44.892Z,17.19
2022-11-09T19:23:34.375Z,16.54
2022-11-09T19:26:22.964Z,16.32
2022-11-09T19:29:12.592Z,17.16
2022-11-09T19:31:58.771Z,17.55
2022-11-09T19:34:47.029Z,17.51
2022-11-09T19:37:33.438Z,16.98
2022-11-09T19:40:19.459Z,17.65
2022-11-09T19:43:05.711Z,17.34
2022-11-09T19:45:52.138Z,16.86
2022-11-09T19:48:43.447Z,16.61
2022-11-09T19:51:31.408Z,16.19
2022-11-09T19:54:17.915Z,16.53
2022-11-09T19:57:03.884Z,16.97
2022-11-09T19:59:50.583Z,16.07
2022-11-09T20:02:37.191Z,16.66
2022-11-09T20:05:24.138Z,16.76
2022-11-09T20:08:10.738Z,16.08
2022-11-09T20:10:57.182Z,16.62
2022-11-09T20:13:43.674Z,16.46
2022-11-09T20:16:29.576Z,17.27
2022-11-09T20:19:18.705Z,16.92
2022-11-09T20:22:05.326Z,16.69
2022-11-09T20:24:51.100Z,16.46
2022-11-09T20:27:37.403Z,16.58
2022-11-09T20:30:23.437Z,16.37
2022-11-09T20:33:10.664Z,16.48
2022-11-09T20:35:57.180Z,16.53
2022-11-09T20:38:44.016Z,16.34
2022-11-09T20:41:31.123Z,16.03
2022-11-09T20:44:17.695Z,15.62
2022-11-09T20:47:04.125Z,16.25
2022-11-09T20:49:49.895Z,16.37
2022-11-09T20:52:35.731Z,16.12
2022-11-09T20:55:22.158Z,15.91
2022-11-09T20:58:14.046Z,16.84
2022-11-09T21:01:05.719Z,16.32
2022-11-09T21:03:53.648Z,16.36
2022-11-09T21:06:39.599Z,16.48
2022-11-09T21:09:25.696Z,16.28
2022-11-09T21:12:25.021Z,16.48
2022-11-09T21:15:10.785Z,16.60
2022-11-09T21:17:56.518Z,16.29
2022-11-09T21:20:42.198Z,17.03
2022-11-09T21:23:27.887Z,16.40
2022-11-09T21:26:32.925Z,16.78
2022-11-09T21:29:39.179Z,16.61
2022-11-09T21:32:25.091Z,17.05
2022-11-09T21:35:10.795Z,17.14
2022-11-09T21:37:56.666Z,16.90
2022-11-09T21:40:44.172Z,17.15
2022-11-09T21:43:30.159Z,17.03
2022-11-09T21:46:15.748Z,16.59
2022-11-09T21:49:01.505Z,16.75
2022-11-09T21:51:47.196Z,16.80
2022-11-09T21:54:32.892Z,16.92
2022-11-09T21:57:18.391Z,17.13
2022-11-09T22:00:04.022Z,16.83
2022-11-09T22:02:49.829Z,16.66
2022-11-09T22:05:35.838Z,16.98
2022-11-09T22:08:21.592Z,16.85
2022-11-09T22:11:08.370Z,16.67
2022-11-09T22:14:13.028Z,17.15
2022-11-09T22:16:58.708Z,16.64
2022-11-09T22:20:02.843Z,17.37
2022-11-09T22:22:48.323Z,17.18
2022-11-09T22:25:33.984Z,17.12
2022-11-09T22:28:19.612Z,17.05
2022-11-09T22:31:06.583Z,17.00
2022-11-09T22:33:52.357Z,17.28
2022-11-09T22:36:38.031Z,17.79
2022-11-09T22:39:23.588Z,17.82
2022-11-09T22:42:09.557Z,17.54
2022-11-09T22:44:55.495Z,18.10
2022-11-09T22:47:41.342Z,17.92
2022-11-09T22:50:27.067Z,16.71
2022-11-09T22:53:13.003Z,17.99
2022-11-09T22:55:59.300Z,17.63
2022-11-09T22:58:47.831Z,17.54
2022-11-09T23:01:33.449Z,17.95
2022-11-09T23:04:19.416Z,18.07
2022-11-09T23:07:04.810Z,18.10
2022-11-09T23:09:50.750Z,17.59
2022-11-09T23:12:36.527Z,17.65
2022-11-09T23:15:22.167Z,17.24
2022-11-09T23:18:27.361Z,17.62
2022-11-09T23:21:13.287Z,18.00
2022-11-09T23:24:02.281Z,18.08
2022-11-09T23:26:48.098Z,18.39
2022-11-09T23:29:33.510Z,18.53
2022-11-09T23:32:19.133Z,18.91
2022-11-09T23:35:05.056Z,18.47
2022-11-09T23:37:57.016Z,18.46
2022-11-09T23:40:42.722Z,17.96
2022-11-09T23:43:28.418Z,17.68
2022-11-09T23:46:14.361Z,17.39
2022-11-09T23:48:59.894Z,18.33
2022-11-09T23:51:45.785Z,18.38
2022-11-09T23:54:31.346Z,18.68
2022-11-09T23:57:17.232Z,18.63
